Aviation Digital Data Service (ADDS)

Output produced by METARs form (0653 UTC 24 March 2019)
found at http://www.aviationweather.gov/metar/data/
 
Forecast for: LRTR (TIMISOARA/GIARMA, RO)
Text: TAF LRTR 240500Z 2406/2506 10007KT CAVOK
Forecast period: 0600 UTC 24 March 2019 to 0600 UTC 25 March 2019
Forecast type: FROM: standard forecast or significant change
Winds: from the E (100 degrees) at 8 MPH (7 knots; 3.6 m/s)
Visibility: 6 or more miles 10+ km)
Ceiling: unknown
Clouds: missing
Weather: NSW  (no significant weather)